Time;durP1;ratioP1;P1;durP2;ratioP2;P2;SDS_P1;SDS_P2;PMS_P1;PMS_P2;Temp;Humidity;BMP_temperature;BMP_pressure;BME280_temperature;BME280_humidity;BME280_pressure;Samples;Min_cycle;Max_cycle;Signal;HPM_P1;HPM_P2
2022/06/30 10:04:55;;;;;;;3.78;3.47;;;24.50;99.90;;;;;;5070827;28;20553;-79
2022/06/30 10:07:21;;;;;;;4.10;3.80;;;24.50;99.90;;;;;;5070695;28;20171;-80
2022/06/30 10:09:49;;;;;;;3.78;3.55;;;24.50;99.90;;;;;;5070659;28;20759;-80
2022/06/30 10:12:19;;;;;;;4.07;3.88;;;24.60;99.90;;;;;;5070669;28;20164;-79
2022/06/30 10:14:47;;;;;;;3.47;3.28;;;24.80;99.90;;;;;;5070579;28;20167;-79
2022/06/30 10:17:15;;;;;;;5.28;2.95;;;25.00;99.90;;;;;;5070503;28;20251;-80
2022/06/30 10:19:42;;;;;;;3.08;2.97;;;25.10;99.90;;;;;;5069210;28;20172;-80
2022/06/30 10:22:07;;;;;;;5.30;3.45;;;25.20;99.90;;;;;;5070341;28;20527;-81
2022/06/30 10:24:34;;;;;;;2.95;2.75;;;25.20;99.90;;;;;;5070300;28;20164;-80
2022/06/30 10:27:12;;;;;;;2.83;2.63;;;25.20;99.90;;;;;;5070332;28;20523;-79
2022/06/30 10:29:56;;;;;;;5.10;2.75;;;25.20;99.90;;;;;;5068974;28;20180;-79
2022/06/30 10:32:33;;;;;;;3.38;3.20;;;25.20;99.90;;;;;;5068933;28;20164;-80
2022/06/30 10:35:30;;;;;;;3.03;2.78;;;25.20;99.90;;;;;;5070150;28;20168;-80
2022/06/30 10:38:20;;;;;;;3.28;2.83;;;25.30;99.90;;;;;;5068352;28;20180;-81
2022/06/30 10:41:11;;;;;;;3.33;2.92;;;25.30;99.90;;;;;;5068825;28;20532;-81
2022/06/30 10:44:04;;;;;;;2.90;2.70;;;25.40;99.90;;;;;;5068756;28;20560;-80
2022/06/30 10:46:49;;;;;;;2.38;2.28;;;25.60;99.90;;;;;;5069951;28;20516;-80
2022/06/30 10:49:15;;;;;;;2.80;2.70;;;25.80;99.90;;;;;;5068638;28;20640;-79
2022/06/30 10:51:41;;;;;;;3.53;2.50;;;26.00;99.90;;;;;;5069812;28;20168;-80
2022/06/30 10:54:08;;;;;;;3.05;2.75;;;26.20;99.90;;;;;;5069697;28;20175;-81
2022/06/30 10:56:49;;;;;;;2.33;2.22;;;26.40;99.90;;;;;;5069562;28;20546;-80
2022/06/30 10:59:16;;;;;;;2.30;2.15;;;26.50;99.90;;;;;;5069624;28;20502;-79
2022/06/30 11:02:15;;;;;;;5.47;2.40;;;26.60;99.90;;;;;;5069568;28;20563;-80
2022/06/30 11:04:48;;;;;;;2.95;2.40;;;26.70;99.90;;;;;;5069529;28;20184;-80
2022/06/30 11:07:23;;;;;;;2.38;2.17;;;26.70;99.90;;;;;;5069350;28;20168;-80
2022/06/30 11:09:51;;;;;;;2.30;2.20;;;26.70;99.90;;;;;;5069345;28;20155;-80
2022/06/30 11:12:41;;;;;;;2.30;2.10;;;26.60;99.90;;;;;;5068078;28;20206;-80
2022/06/30 11:15:08;;;;;;;3.28;2.03;;;26.50;99.90;;;;;;5059310;28;20169;-80
2022/06/30 11:17:37;;;;;;;3.22;2.70;;;26.50;99.90;;;;;;5054778;28;20569;-79
2022/06/30 11:20:08;;;;;;;6.05;3.20;;;26.40;99.90;;;;;;5056034;28;20675;-79
2022/06/30 11:22:34;;;;;;;3.72;3.42;;;26.20;99.90;;;;;;5055950;28;20200;-80
2022/06/30 11:25:04;;;;;;;3.08;2.90;;;26.20;99.90;;;;;;5055988;28;20621;-79
2022/06/30 11:27:32;;;;;;;3.35;3.10;;;26.30;99.90;;;;;;5055854;28;20171;-79
2022/06/30 11:30:00;;;;;;;3.38;3.08;;;26.20;99.90;;;;;;5055833;28;20189;-78
2022/06/30 11:32:26;;;;;;;4.82;3.60;;;26.20;99.90;;;;;;5055834;28;20164;-78
2022/06/30 11:34:53;;;;;;;3.85;2.92;;;26.30;99.90;;;;;;5054464;28;20558;-78
2022/06/30 11:37:22;;;;;;;4.88;3.58;;;26.40;99.90;;;;;;5054422;28;20169;-78
2022/06/30 11:39:59;;;;;;;5.88;2.90;;;26.50;99.90;;;;;;5055681;28;20168;-79
2022/06/30 11:42:25;;;;;;;3.75;3.13;;;26.50;99.90;;;;;;5055540;28;20218;-79
2022/06/30 11:44:52;;;;;;;4.35;3.13;;;26.60;99.90;;;;;;5055612;28;20498;-79
2022/06/30 11:47:18;;;;;;;5.47;3.35;;;26.60;99.90;;;;;;5055603;28;20167;-79
2022/06/30 11:49:45;;;;;;;3.28;2.97;;;26.60;99.90;;;;;;5054263;28;20625;-78
2022/06/30 11:52:11;;;;;;;4.25;2.97;;;26.60;99.90;;;;;;5054188;28;20169;-78
2022/06/30 11:54:38;;;;;;;5.97;3.00;;;26.60;99.90;;;;;;5055360;28;20221;-79
2022/06/30 11:57:04;;;;;;;3.65;2.83;;;26.70;99.90;;;;;;5053971;28;20193;-79
2022/06/30 11:59:30;;;;;;;5.00;4.53;;;26.80;99.90;;;;;;5054019;28;20630;-79
2022/06/30 12:02:03;;;;;;;3.00;2.80;;;26.90;99.90;;;;;;5053973;28;20237;-79
2022/06/30 12:04:29;;;;;;;3.47;2.88;;;26.90;99.90;;;;;;5053757;28;20220;-80
2022/06/30 12:06:54;;;;;;;3.15;2.97;;;26.90;99.90;;;;;;5053940;28;20202;-79
2022/06/30 12:09:20;;;;;;;8.25;3.50;;;26.90;99.90;;;;;;5053747;28;20164;-81
2022/06/30 12:11:46;;;;;;;2.83;2.53;;;26.90;99.90;;;;;;5055125;28;20203;-80
2022/06/30 12:14:12;;;;;;;3.20;3.00;;;27.00;99.90;;;;;;5053785;28;20179;-80
2022/06/30 12:16:38;;;;;;;3.92;2.95;;;27.00;99.90;;;;;;5054867;28;20176;-80
2022/06/30 12:19:03;;;;;;;3.78;2.60;;;27.00;99.90;;;;;;5054921;28;20303;-80
2022/06/30 12:21:30;;;;;;;3.63;3.28;;;27.10;99.90;;;;;;5054882;28;20169;-80
2022/06/30 12:23:56;;;;;;;5.78;3.33;;;27.30;99.90;;;;;;5054750;28;20191;-80
2022/06/30 12:26:22;;;;;;;2.88;2.65;;;27.50;99.90;;;;;;5053815;28;20169;-80
2022/06/30 12:28:55;;;;;;;2.40;2.30;;;27.70;99.90;;;;;;5054701;28;20219;-80
2022/06/30 12:31:28;;;;;;;7.65;3.00;;;27.90;99.90;;;;;;5054713;28;20171;-80
2022/06/30 12:33:55;;;;;;;2.90;2.70;;;28.10;99.90;;;;;;5053410;28;20172;-80
2022/06/30 12:36:23;;;;;;;4.88;3.35;;;28.20;99.90;;;;;;5054545;28;20172;-80
2022/06/30 12:38:49;;;;;;;3.17;2.75;;;28.50;99.90;;;;;;5054463;28;20168;-80
2022/06/30 12:41:15;;;;;;;4.00;3.00;;;28.50;99.90;;;;;;5054517;28;20230;-80
2022/06/30 12:43:51;;;;;;;3.08;2.88;;;28.60;99.90;;;;;;5054384;28;20560;-81
2022/06/30 12:46:18;;;;;;;4.00;2.67;;;28.50;99.90;;;;;;5053159;28;20172;-80
2022/06/30 12:48:53;;;;;;;2.97;2.78;;;28.40;99.90;;;;;;5053080;28;20172;-80
2022/06/30 12:51:28;;;;;;;3.85;3.13;;;28.40;99.90;;;;;;5053003;28;20173;-81
2022/06/30 12:54:06;;;;;;;2.85;2.33;;;28.60;99.90;;;;;;5054261;28;20164;-82
2022/06/30 12:56:32;;;;;;;3.33;2.78;;;28.90;99.90;;;;;;5054121;28;20188;-81
2022/06/30 12:59:05;;;;;;;2.63;2.50;;;28.90;99.90;;;;;;5054124;28;20252;-82
2022/06/30 13:01:33;;;;;;;4.40;2.53;;;29.00;99.90;;;;;;5053865;28;20181;-82
2022/06/30 13:04:02;;;;;;;3.28;3.08;;;29.10;99.90;;;;;;5053814;28;20576;-82
2022/06/30 13:06:31;;;;;;;3.15;2.92;;;29.20;99.90;;;;;;5053926;28;20630;-82
2022/06/30 13:08:57;;;;;;;6.07;2.95;;;29.30;99.90;;;;;;5053982;28;20271;-81
2022/06/30 13:11:26;;;;;;;3.85;2.70;;;29.30;99.90;;;;;;5052659;28;20165;-81
2022/06/30 13:13:53;;;;;;;32.28;5.82;;;29.20;99.90;;;;;;5053815;28;20168;-81
2022/06/30 13:16:19;;;;;;;363.58;31.20;;;29.50;99.90;;;;;;5053822;28;20233;-81
2022/06/30 13:18:46;;;;;;;22.70;4.43;;;29.70;99.90;;;;;;5053801;28;20582;-82
2022/06/30 13:21:13;;;;;;;3.83;2.78;;;29.80;99.90;;;;;;5053780;28;20160;-81
2022/06/30 13:23:38;;;;;;;2.80;2.40;;;30.00;99.90;;;;;;5053599;28;20199;-81
2022/06/30 13:26:04;;;;;;;2.50;2.40;;;30.10;99.90;;;;;;5053646;28;20555;-82
2022/06/30 13:28:29;;;;;;;47.42;5.78;;;30.00;99.90;;;;;;5053572;28;20248;-81
2022/06/30 13:30:55;;;;;;;43.15;5.85;;;30.10;99.90;;;;;;5053553;28;20291;-82
2022/06/30 13:33:21;;;;;;;7.05;3.00;;;30.40;99.90;;;;;;5053559;28;20214;-81
2022/06/30 13:35:46;;;;;;;4.68;4.28;;;30.80;99.90;;;;;;5053572;28;20168;-81
2022/06/30 13:38:12;;;;;;;3.10;2.90;;;31.00;99.90;;;;;;5053199;28;20255;-82
2022/06/30 13:40:38;;;;;;;3.75;2.75;;;31.20;99.90;;;;;;5053318;28;20180;-82
2022/06/30 13:43:04;;;;;;;4.05;2.50;;;31.20;99.90;;;;;;5053263;28;20192;-82
2022/06/30 13:45:30;;;;;;;2.85;2.65;;;31.10;99.90;;;;;;5053360;28;20172;-82
2022/06/30 13:47:56;;;;;;;7.10;2.97;;;30.90;99.90;;;;;;5052059;28;20176;-81
2022/06/30 13:50:22;;;;;;;4.75;2.90;;;30.90;99.90;;;;;;5052014;28;20168;-82
2022/06/30 13:52:47;;;;;;;3.08;2.88;;;31.20;99.90;;;;;;5053311;28;20199;-84
2022/06/30 13:55:13;;;;;;;3.85;2.53;;;31.50;99.90;;;;;;5053213;28;20208;-83
2022/06/30 13:57:39;;;;;;;2.65;2.45;;;31.60;99.90;;;;;;5053134;28;20173;-83
2022/06/30 14:00:06;;;;;;;3.35;2.70;;;31.50;99.90;;;;;;5053195;28;20318;-83
2022/06/30 14:02:31;;;;;;;2.92;2.72;;;31.40;99.90;;;;;;5052655;28;20224;-82
2022/06/30 14:04:59;;;;;;;5.32;2.80;;;31.10;99.90;;;;;;5053121;28;20350;-82
2022/06/30 14:07:27;;;;;;;6.85;2.83;;;30.90;99.90;;;;;;5051810;28;20176;-82
2022/06/30 14:09:54;;;;;;;3.35;2.80;;;30.50;99.90;;;;;;5051844;28;20226;-82
2022/06/30 14:12:21;;;;;;;3.72;2.55;;;30.10;99.90;;;;;;5051805;28;20173;-81
2022/06/30 14:14:47;;;;;;;3.28;2.70;;;30.30;99.90;;;;;;5053074;28;20165;-82
2022/06/30 14:17:12;;;;;;;2.90;2.70;;;30.70;99.90;;;;;;5053087;28;20211;-83
2022/06/30 14:19:38;;;;;;;2.63;2.42;;;31.00;99.90;;;;;;5053061;28;20620;-83
2022/06/30 14:22:04;;;;;;;3.03;2.92;;;30.80;99.90;;;;;;5052985;28;20169;-83
2022/06/30 14:24:30;;;;;;;2.70;2.50;;;30.80;99.90;;;;;;5052954;28;20196;-82
2022/06/30 14:26:56;;;;;;;3.20;2.90;;;30.70;99.90;;;;;;5052944;28;20165;-82
2022/06/30 14:29:22;;;;;;;3.38;2.90;;;30.90;99.90;;;;;;5052889;28;20164;-83
2022/06/30 14:31:48;;;;;;;4.57;2.90;;;31.40;99.90;;;;;;5052991;28;20684;-82
2022/06/30 14:34:14;;;;;;;4.70;2.88;;;31.60;99.90;;;;;;5052899;28;20522;-83
2022/06/30 14:36:40;;;;;;;3.17;2.60;;;31.90;99.90;;;;;;5052932;28;20310;-83
2022/06/30 14:39:05;;;;;;;3.53;3.33;;;32.20;99.90;;;;;;5052853;28;20172;-83
2022/06/30 14:44:15;;;;;;;3.08;2.90;;;32.60;99.90;;;;;;5052876;28;20207;-83
2022/06/30 14:46:41;;;;;;;3.72;2.42;;;32.70;99.90;;;;;;5052730;28;20236;-83
2022/06/30 14:49:06;;;;;;;3.42;3.13;;;32.80;99.90;;;;;;5052830;28;20250;-83
2022/06/30 14:51:32;;;;;;;3.15;2.92;;;32.80;99.90;;;;;;5056584;28;20245;-82
2022/06/30 14:53:57;;;;;;;2.88;2.67;;;33.00;99.90;;;;;;5056459;28;20622;-83
2022/06/30 14:56:23;;;;;;;3.00;2.90;;;33.30;99.90;;;;;;5055172;28;20602;-83
2022/06/30 14:58:49;;;;;;;3.33;3.03;;;33.50;99.90;;;;;;5056439;28;20169;-83
2022/06/30 15:01:14;;;;;;;4.22;2.85;;;33.50;99.90;;;;;;5055154;28;20176;-83
2022/06/30 15:03:40;;;;;;;4.07;2.60;;;33.70;99.90;;;;;;5056121;28;20298;-83
2022/06/30 15:06:06;;;;;;;3.22;2.90;;;33.80;99.90;;;;;;5056424;28;20165;-83
2022/06/30 15:08:33;;;;;;;4.53;2.60;;;34.00;99.90;;;;;;5056133;28;20173;-82
2022/06/30 15:10:58;;;;;;;2.97;2.75;;;34.00;99.90;;;;;;5054938;28;20687;-83
2022/06/30 15:13:24;;;;;;;2.95;2.85;;;34.00;99.90;;;;;;5056195;28;20172;-84
2022/06/30 15:15:50;;;;;;;3.42;3.22;;;34.00;99.90;;;;;;5054796;28;20173;-83
2022/06/30 15:18:15;;;;;;;2.75;2.55;;;34.00;99.90;;;;;;5056138;28;20342;-83
2022/06/30 15:20:41;;;;;;;2.75;2.60;;;34.20;99.90;;;;;;5056454;28;20191;-83
2022/06/30 15:25:52;;;;;;;3.42;3.13;;;34.40;99.90;;;;;;5056016;28;20256;-82
2022/06/30 15:28:17;;;;;;;3.10;2.80;;;34.60;99.90;;;;;;5056148;28;20267;-82
2022/06/30 15:30:43;;;;;;;4.82;2.85;;;34.50;99.90;;;;;;5055939;28;20339;-84
2022/06/30 15:33:09;;;;;;;3.72;2.80;;;34.60;99.90;;;;;;5055757;28;20169;-83
2022/06/30 15:35:35;;;;;;;2.95;2.75;;;34.40;99.90;;;;;;5055726;28;20176;-83
2022/06/30 15:38:00;;;;;;;3.70;3.40;;;33.90;99.90;;;;;;5054456;28;20622;-84
2022/06/30 15:40:27;;;;;;;3.47;2.83;;;33.80;99.90;;;;;;5054439;28;20169;-83
2022/06/30 15:42:53;;;;;;;2.97;2.80;;;33.80;99.90;;;;;;5055555;28;20192;-83
2022/06/30 15:45:23;;;;;;;7.82;3.20;;;33.70;99.90;;;;;;5055606;28;20164;-83
2022/06/30 15:47:50;;;;;;;5.53;2.85;;;33.80;99.90;;;;;;5055548;28;20640;-83
2022/06/30 15:50:16;;;;;;;3.22;3.03;;;33.60;99.90;;;;;;5055419;28;20255;-83
2022/06/30 15:52:42;;;;;;;3.83;3.50;;;33.00;99.90;;;;;;5055418;28;20642;-83
2022/06/30 15:55:07;;;;;;;3.47;3.17;;;32.50;99.90;;;;;;5054432;28;20180;-82
2022/06/30 15:57:34;;;;;;;3.20;2.90;;;32.50;99.90;;;;;;5055328;28;20173;-82
2022/06/30 16:00:00;;;;;;;3.88;3.58;;;32.10;99.90;;;;;;5055305;28;20203;-82
2022/06/30 16:02:26;;;;;;;4.32;3.30;;;31.80;99.90;;;;;;5054863;28;20199;-82
2022/06/30 16:04:51;;;;;;;5.97;3.20;;;31.40;99.90;;;;;;5055179;28;20553;-81
2022/06/30 16:07:18;;;;;;;3.70;3.50;;;30.90;99.90;;;;;;5053775;28;20177;-81
2022/06/30 16:09:43;;;;;;;3.30;3.17;;;30.40;99.90;;;;;;5055008;28;20165;-81
2022/06/30 16:12:09;;;;;;;3.42;3.10;;;30.00;99.90;;;;;;5053727;28;20539;-81
2022/06/30 16:14:35;;;;;;;3.78;3.58;;;29.60;99.90;;;;;;5055030;28;20196;-81
2022/06/30 16:17:01;;;;;;;3.75;3.33;;;29.30;99.90;;;;;;5054868;28;20200;-81
2022/06/30 16:19:27;;;;;;;4.45;3.50;;;29.20;99.90;;;;;;5054846;28;20169;-82
2022/06/30 16:21:53;;;;;;;3.58;3.38;;;29.00;99.90;;;;;;5054888;28;20177;-81
2022/06/30 16:24:18;;;;;;;3.10;3.00;;;28.70;99.90;;;;;;5053459;28;20207;-80
2022/06/30 16:26:44;;;;;;;4.15;3.40;;;28.60;99.90;;;;;;5053429;28;20574;-81
2022/06/30 16:29:10;;;;;;;3.50;3.13;;;28.50;99.90;;;;;;5054826;28;20215;-81
2022/06/30 16:31:36;;;;;;;3.88;3.60;;;28.30;99.90;;;;;;5054731;28;20630;-81
2022/06/30 16:34:02;;;;;;;3.97;3.67;;;28.20;99.90;;;;;;5054670;28;20176;-81
2022/06/30 16:36:27;;;;;;;5.30;5.00;;;28.10;99.90;;;;;;5054434;28;20197;-80
2022/06/30 16:38:53;;;;;;;8.27;7.25;;;28.10;99.90;;;;;;5053232;28;20168;-81
2022/06/30 16:41:18;;;;;;;4.95;4.55;;;28.00;99.90;;;;;;5054482;28;20164;-80
2022/06/30 16:43:44;;;;;;;4.32;3.90;;;28.00;99.90;;;;;;5054331;28;20585;-80
